CFU3 weather

Chipman Airport
Chipman, Alberta, Canada

Public forecast

Using degrees Celsius for public forecast. Weather courtesy of forecast.io.

METAR (pilot weather report)

Closest report is Edmonton (CFB Namao) Heliport, 30.0 nm (55.5 km) W. Retrieved 2019/05/19 22:00 UTC (39 minutes ago):

CYED 192200Z AUTO 16018KT 9SM CLR 17/M01 A3006 RMK SLP195

TAF (pilot weather forecast)

Forecast is more than 12 hours old.

Closest forecast is Edmonton (CFB Namao) Heliport, 30.0 nm (55.5 km) W. Retrieved 2019/05/17 00:33 UTC (3 days ago):

TAF TAF CYED 172330Z 1800/1812 13015G25KT P6SM FEW080 BECMG 1801/1803 13010KT FM180800 17005KT P6SM SCT080 BKN220 RMK FCST BASED ON AUTO OBS. NXT FCST BY 180600Z